Weather Data

Pearl Creek Farm: 8878 N Farm Road 75, Walnut Grove MO 65770

<== Previous Day (Tuesday 05 Aug 2008) | Next Day (Thursday 07 Aug 2008) ==>

Summary Precipitation Data For Wednesday 06 August 2008

ElementValueUnits
PrecipitationT
Notes(none)
SourceSpringfield-Branson National Airport (SGF)

Summary Temperature Data For Wednesday 06 August 2008

ElementValueUnits
High Temperature87 oF
Low Temperature71 oF
Average Temperature78 oF
High Humidity91 %
Low Humidity57 %
Average Humidity75 %
SourceSpringfield-Branson National Airport (SGF)

Detail Temperature Data For Wednesday 06 August 2008

Date / TimeTemp (F)RH (%)Dew Pt (F)Report Date / TimeSource
2008-08-06 00:52:00 80 64 67.0 2017-12-29 19:14:24.89625 Springfield-Branson National Airport (SGF)
2008-08-06 02:52:00 72 79 65.0 2017-12-29 19:14:24.89625 Springfield-Branson National Airport (SGF)
2008-08-06 03:52:00 72 87 68.0 2017-12-29 19:14:24.89625 Springfield-Branson National Airport (SGF)
2008-08-06 16:52:00 85 61 70.0 2017-12-29 19:14:24.89625 Springfield-Branson National Airport (SGF)
2008-08-06 17:52:00 82 72 72.0 2017-12-29 19:14:24.89625 Springfield-Branson National Airport (SGF)
2008-08-06 18:52:00 81 74 72.0 2017-12-29 19:14:24.89625 Springfield-Branson National Airport (SGF)
2008-08-06 19:52:00 75 84 70.0 2017-12-29 19:14:24.89625 Springfield-Branson National Airport (SGF)
2008-08-06 01:52:00 78 71 68.0 2017-12-29 19:14:24.89625 Springfield-Branson National Airport (SGF)
2008-08-06 04:52:00 72 87 68.0 2017-12-29 19:14:24.89625 Springfield-Branson National Airport (SGF)
2008-08-06 05:52:00 71 90 68.0 2017-12-29 19:14:24.89625 Springfield-Branson National Airport (SGF)
2008-08-06 06:52:00 73 87 69.0 2017-12-29 19:14:24.89625 Springfield-Branson National Airport (SGF)
2008-08-06 07:52:00 75 79 68.0 2017-12-29 19:14:24.89625 Springfield-Branson National Airport (SGF)
2008-08-06 08:52:00 76 79 69.0 2017-12-29 19:14:24.89625 Springfield-Branson National Airport (SGF)
2008-08-06 09:52:00 80 64 67.0 2017-12-29 19:14:24.89625 Springfield-Branson National Airport (SGF)
2008-08-06 10:52:00 79 69 68.0 2017-12-29 19:14:24.89625 Springfield-Branson National Airport (SGF)
2008-08-06 11:52:00 81 65 68.0 2017-12-29 19:14:24.89625 Springfield-Branson National Airport (SGF)
2008-08-06 12:52:00 82 65 69.0 2017-12-29 19:14:24.89625 Springfield-Branson National Airport (SGF)
2008-08-06 13:52:00 84 61 69.0 2017-12-29 19:14:24.89625 Springfield-Branson National Airport (SGF)
2008-08-06 14:52:00 85 59 69.0 2017-12-29 19:14:24.89625 Springfield-Branson National Airport (SGF)
2008-08-06 15:52:00 87 57 70.0 2017-12-29 19:14:24.89625 Springfield-Branson National Airport (SGF)
2008-08-06 20:52:00 75 84 70.0 2017-12-29 19:14:24.89625 Springfield-Branson National Airport (SGF)
2008-08-06 21:52:00 73 87 69.0 2017-12-29 19:14:24.89625 Springfield-Branson National Airport (SGF)
2008-08-06 22:52:00 72 91 69.0 2017-12-29 19:14:24.89625 Springfield-Branson National Airport (SGF)
2008-08-06 23:52:00 73 87 69.0 2017-12-29 19:14:24.89625 Springfield-Branson National Airport (SGF)

A total of 24 rows are displayed.